sensor_id;sensor_type;location;lat;lon;timestamp;P1;durP1;ratioP1;P2;durP2;ratioP2
67378;SDS011;54262;44.642;-0.974;2023-04-25T00:02:22;0.90;;;0.90;;
67378;SDS011;54262;44.642;-0.974;2023-04-25T00:04:48;0.73;;;0.73;;
67378;SDS011;54262;44.642;-0.974;2023-04-25T00:07:14;0.90;;;0.80;;
67378;SDS011;54262;44.642;-0.974;2023-04-25T00:09:41;0.88;;;0.88;;
67378;SDS011;54262;44.642;-0.974;2023-04-25T00:12:07;0.98;;;0.98;;
67378;SDS011;54262;44.642;-0.974;2023-04-25T00:14:33;0.82;;;0.82;;
67378;SDS011;54262;44.642;-0.974;2023-04-25T00:17:00;0.73;;;0.73;;
67378;SDS011;54262;44.642;-0.974;2023-04-25T00:19:27;5.05;;;0.90;;
67378;SDS011;54262;44.642;-0.974;2023-04-25T00:21:54;0.63;;;0.63;;
67378;SDS011;54262;44.642;-0.974;2023-04-25T00:24:22;1.33;;;0.93;;
67378;SDS011;54262;44.642;-0.974;2023-04-25T00:26:50;0.80;;;0.80;;
67378;SDS011;54262;44.642;-0.974;2023-04-25T00:29:16;0.90;;;0.90;;
67378;SDS011;54262;44.642;-0.974;2023-04-25T00:31:42;1.00;;;1.00;;
67378;SDS011;54262;44.642;-0.974;2023-04-25T00:34:08;1.23;;;1.23;;
67378;SDS011;54262;44.642;-0.974;2023-04-25T00:36:34;1.10;;;1.10;;
67378;SDS011;54262;44.642;-0.974;2023-04-25T00:39:01;1.02;;;1.02;;
67378;SDS011;54262;44.642;-0.974;2023-04-25T00:41:29;1.00;;;1.00;;
67378;SDS011;54262;44.642;-0.974;2023-04-25T00:43:55;1.30;;;1.20;;
67378;SDS011;54262;44.642;-0.974;2023-04-25T00:46:21;0.82;;;0.82;;
67378;SDS011;54262;44.642;-0.974;2023-04-25T00:48:47;0.40;;;0.40;;
67378;SDS011;54262;44.642;-0.974;2023-04-25T00:51:14;0.68;;;0.68;;
67378;SDS011;54262;44.642;-0.974;2023-04-25T00:53:41;0.65;;;0.65;;
67378;SDS011;54262;44.642;-0.974;2023-04-25T00:56:07;0.65;;;0.65;;
67378;SDS011;54262;44.642;-0.974;2023-04-25T00:58:33;0.77;;;0.77;;
67378;SDS011;54262;44.642;-0.974;2023-04-25T01:01:00;0.90;;;0.90;;
67378;SDS011;54262;44.642;-0.974;2023-04-25T01:03:27;2.10;;;0.80;;
67378;SDS011;54262;44.642;-0.974;2023-04-25T01:05:53;0.77;;;0.77;;
67378;SDS011;54262;44.642;-0.974;2023-04-25T01:08:21;1.98;;;0.90;;
67378;SDS011;54262;44.642;-0.974;2023-04-25T01:10:50;0.80;;;0.80;;
67378;SDS011;54262;44.642;-0.974;2023-04-25T01:13:16;4.25;;;1.13;;
67378;SDS011;54262;44.642;-0.974;2023-04-25T01:15:42;0.80;;;0.80;;
67378;SDS011;54262;44.642;-0.974;2023-04-25T01:18:08;0.60;;;0.60;;
67378;SDS011;54262;44.642;-0.974;2023-04-25T01:20:35;1.77;;;0.75;;
67378;SDS011;54262;44.642;-0.974;2023-04-25T01:23:02;1.58;;;0.80;;
67378;SDS011;54262;44.642;-0.974;2023-04-25T01:25:31;0.70;;;0.70;;
67378;SDS011;54262;44.642;-0.974;2023-04-25T01:27:59;0.90;;;0.90;;
67378;SDS011;54262;44.642;-0.974;2023-04-25T01:30:26;0.90;;;0.90;;
67378;SDS011;54262;44.642;-0.974;2023-04-25T01:32:54;1.02;;;1.00;;
67378;SDS011;54262;44.642;-0.974;2023-04-25T01:35:20;0.80;;;0.80;;
67378;SDS011;54262;44.642;-0.974;2023-04-25T01:37:49;0.90;;;0.90;;
67378;SDS011;54262;44.642;-0.974;2023-04-25T01:40:15;0.90;;;0.90;;
67378;SDS011;54262;44.642;-0.974;2023-04-25T01:42:43;1.30;;;1.20;;
67378;SDS011;54262;44.642;-0.974;2023-04-25T01:45:09;1.10;;;1.10;;
67378;SDS011;54262;44.642;-0.974;2023-04-25T01:47:36;1.25;;;1.13;;
67378;SDS011;54262;44.642;-0.974;2023-04-25T01:50:03;1.48;;;1.40;;
67378;SDS011;54262;44.642;-0.974;2023-04-25T01:52:29;1.63;;;1.58;;
67378;SDS011;54262;44.642;-0.974;2023-04-25T01:54:55;1.75;;;1.63;;
67378;SDS011;54262;44.642;-0.974;2023-04-25T01:57:22;1.90;;;1.80;;
67378;SDS011;54262;44.642;-0.974;2023-04-25T01:59:48;1.83;;;1.73;;
67378;SDS011;54262;44.642;-0.974;2023-04-25T02:02:14;2.08;;;1.60;;
67378;SDS011;54262;44.642;-0.974;2023-04-25T02:04:40;2.00;;;1.90;;
67378;SDS011;54262;44.642;-0.974;2023-04-25T02:07:06;1.88;;;1.80;;
67378;SDS011;54262;44.642;-0.974;2023-04-25T02:09:32;2.08;;;1.98;;
67378;SDS011;54262;44.642;-0.974;2023-04-25T02:11:58;1.38;;;1.38;;
67378;SDS011;54262;44.642;-0.974;2023-04-25T02:14:28;4.55;;;2.35;;
67378;SDS011;54262;44.642;-0.974;2023-04-25T02:16:54;1.65;;;1.65;;
67378;SDS011;54262;44.642;-0.974;2023-04-25T02:19:20;2.08;;;2.08;;
67378;SDS011;54262;44.642;-0.974;2023-04-25T02:21:46;1.55;;;1.55;;
67378;SDS011;54262;44.642;-0.974;2023-04-25T02:24:12;1.55;;;1.55;;
67378;SDS011;54262;44.642;-0.974;2023-04-25T02:26:40;2.00;;;1.90;;
67378;SDS011;54262;44.642;-0.974;2023-04-25T02:29:09;2.47;;;1.70;;
67378;SDS011;54262;44.642;-0.974;2023-04-25T02:31:35;1.73;;;1.70;;
67378;SDS011;54262;44.642;-0.974;2023-04-25T02:34:01;1.65;;;1.65;;
67378;SDS011;54262;44.642;-0.974;2023-04-25T02:36:27;1.65;;;1.55;;
67378;SDS011;54262;44.642;-0.974;2023-04-25T02:38:55;1.60;;;1.60;;
67378;SDS011;54262;44.642;-0.974;2023-04-25T02:41:21;1.50;;;1.50;;
67378;SDS011;54262;44.642;-0.974;2023-04-25T02:43:47;1.77;;;1.70;;
67378;SDS011;54262;44.642;-0.974;2023-04-25T02:46:13;2.03;;;1.92;;
67378;SDS011;54262;44.642;-0.974;2023-04-25T02:48:40;1.80;;;1.70;;
67378;SDS011;54262;44.642;-0.974;2023-04-25T02:51:06;1.60;;;1.60;;
67378;SDS011;54262;44.642;-0.974;2023-04-25T02:53:32;1.55;;;1.50;;
67378;SDS011;54262;44.642;-0.974;2023-04-25T02:55:58;1.83;;;1.77;;
67378;SDS011;54262;44.642;-0.974;2023-04-25T02:58:24;3.00;;;2.90;;
67378;SDS011;54262;44.642;-0.974;2023-04-25T03:00:50;3.08;;;2.97;;
67378;SDS011;54262;44.642;-0.974;2023-04-25T03:03:16;3.15;;;3.05;;
67378;SDS011;54262;44.642;-0.974;2023-04-25T03:05:43;5.25;;;3.95;;
67378;SDS011;54262;44.642;-0.974;2023-04-25T03:08:10;3.78;;;3.60;;
67378;SDS011;54262;44.642;-0.974;2023-04-25T03:10:36;3.63;;;3.53;;
67378;SDS011;54262;44.642;-0.974;2023-04-25T03:13:05;6.55;;;3.58;;
67378;SDS011;54262;44.642;-0.974;2023-04-25T03:15:31;3.92;;;3.80;;
67378;SDS011;54262;44.642;-0.974;2023-04-25T03:18:00;3.60;;;3.28;;
67378;SDS011;54262;44.642;-0.974;2023-04-25T03:20:26;4.20;;;4.00;;
67378;SDS011;54262;44.642;-0.974;2023-04-25T03:22:52;4.50;;;3.85;;
67378;SDS011;54262;44.642;-0.974;2023-04-25T03:25:18;3.83;;;3.58;;
67378;SDS011;54262;44.642;-0.974;2023-04-25T03:27:46;3.88;;;3.35;;
67378;SDS011;54262;44.642;-0.974;2023-04-25T03:30:14;3.53;;;3.33;;
67378;SDS011;54262;44.642;-0.974;2023-04-25T03:32:40;3.45;;;3.35;;
67378;SDS011;54262;44.642;-0.974;2023-04-25T03:35:07;3.17;;;2.97;;
67378;SDS011;54262;44.642;-0.974;2023-04-25T03:37:33;2.97;;;2.88;;
67378;SDS011;54262;44.642;-0.974;2023-04-25T03:39:59;3.70;;;3.40;;
67378;SDS011;54262;44.642;-0.974;2023-04-25T03:42:25;2.72;;;2.63;;
67378;SDS011;54262;44.642;-0.974;2023-04-25T03:44:51;3.60;;;3.50;;
67378;SDS011;54262;44.642;-0.974;2023-04-25T03:47:17;3.35;;;3.20;;
67378;SDS011;54262;44.642;-0.974;2023-04-25T03:49:43;4.00;;;3.80;;
67378;SDS011;54262;44.642;-0.974;2023-04-25T03:52:09;3.60;;;3.50;;
67378;SDS011;54262;44.642;-0.974;2023-04-25T03:54:35;4.55;;;4.30;;
67378;SDS011;54262;44.642;-0.974;2023-04-25T03:57:04;3.78;;;3.58;;
67378;SDS011;54262;44.642;-0.974;2023-04-25T03:59:30;3.97;;;3.78;;
67378;SDS011;54262;44.642;-0.974;2023-04-25T04:01:56;4.35;;;3.38;;
67378;SDS011;54262;44.642;-0.974;2023-04-25T04:04:22;4.70;;;4.38;;
67378;SDS011;54262;44.642;-0.974;2023-04-25T04:06:48;4.22;;;4.03;;
67378;SDS011;54262;44.642;-0.974;2023-04-25T04:09:15;3.75;;;3.45;;
67378;SDS011;54262;44.642;-0.974;2023-04-25T04:11:41;2.97;;;2.88;;
67378;SDS011;54262;44.642;-0.974;2023-04-25T04:14:07;3.08;;;2.88;;
67378;SDS011;54262;44.642;-0.974;2023-04-25T04:16:35;2.72;;;2.63;;
67378;SDS011;54262;44.642;-0.974;2023-04-25T04:19:02;3.45;;;3.25;;
67378;SDS011;54262;44.642;-0.974;2023-04-25T04:21:28;3.35;;;3.03;;
67378;SDS011;54262;44.642;-0.974;2023-04-25T04:23:54;3.13;;;2.92;;
67378;SDS011;54262;44.642;-0.974;2023-04-25T04:26:22;4.88;;;3.13;;
67378;SDS011;54262;44.642;-0.974;2023-04-25T04:28:54;3.13;;;2.92;;
67378;SDS011;54262;44.642;-0.974;2023-04-25T04:31:22;2.70;;;2.60;;
67378;SDS011;54262;44.642;-0.974;2023-04-25T04:33:48;2.97;;;2.63;;
67378;SDS011;54262;44.642;-0.974;2023-04-25T04:36:16;3.95;;;2.75;;
67378;SDS011;54262;44.642;-0.974;2023-04-25T04:38:44;3.20;;;2.83;;
67378;SDS011;54262;44.642;-0.974;2023-04-25T04:41:13;2.30;;;2.20;;
67378;SDS011;54262;44.642;-0.974;2023-04-25T04:43:39;2.53;;;2.42;;
67378;SDS011;54262;44.642;-0.974;2023-04-25T04:46:06;2.42;;;2.33;;
67378;SDS011;54262;44.642;-0.974;2023-04-25T04:48:35;4.93;;;2.50;;
67378;SDS011;54262;44.642;-0.974;2023-04-25T04:51:01;2.28;;;2.17;;
67378;SDS011;54262;44.642;-0.974;2023-04-25T04:53:27;3.13;;;2.28;;
67378;SDS011;54262;44.642;-0.974;2023-04-25T04:55:53;2.38;;;2.10;;
67378;SDS011;54262;44.642;-0.974;2023-04-25T04:58:19;1.90;;;1.83;;
67378;SDS011;54262;44.642;-0.974;2023-04-25T05:00:45;2.38;;;2.28;;
67378;SDS011;54262;44.642;-0.974;2023-04-25T05:03:12;1.70;;;1.70;;
67378;SDS011;54262;44.642;-0.974;2023-04-25T05:05:38;2.03;;;1.60;;
67378;SDS011;54262;44.642;-0.974;2023-04-25T05:08:07;1.73;;;1.63;;
67378;SDS011;54262;44.642;-0.974;2023-04-25T05:10:33;8.02;;;1.80;;
67378;SDS011;54262;44.642;-0.974;2023-04-25T05:12:59;2.03;;;1.92;;
67378;SDS011;54262;44.642;-0.974;2023-04-25T05:15:25;2.13;;;2.03;;
67378;SDS011;54262;44.642;-0.974;2023-04-25T05:17:51;2.17;;;2.08;;
67378;SDS011;54262;44.642;-0.974;2023-04-25T05:20:17;1.90;;;1.80;;
67378;SDS011;54262;44.642;-0.974;2023-04-25T05:22:44;1.85;;;1.80;;
67378;SDS011;54262;44.642;-0.974;2023-04-25T05:25:10;1.73;;;1.63;;
67378;SDS011;54262;44.642;-0.974;2023-04-25T05:27:36;2.15;;;2.05;;
67378;SDS011;54262;44.642;-0.974;2023-04-25T05:30:05;1.90;;;1.80;;
67378;SDS011;54262;44.642;-0.974;2023-04-25T05:32:33;2.55;;;1.90;;
67378;SDS011;54262;44.642;-0.974;2023-04-25T05:34:59;2.22;;;2.13;;
67378;SDS011;54262;44.642;-0.974;2023-04-25T05:37:25;1.92;;;1.83;;
67378;SDS011;54262;44.642;-0.974;2023-04-25T05:39:51;1.85;;;1.83;;
67378;SDS011;54262;44.642;-0.974;2023-04-25T05:42:18;2.00;;;2.00;;
67378;SDS011;54262;44.642;-0.974;2023-04-25T05:44:44;2.20;;;2.10;;
67378;SDS011;54262;44.642;-0.974;2023-04-25T05:47:10;2.20;;;2.10;;
67378;SDS011;54262;44.642;-0.974;2023-04-25T05:49:36;2.40;;;2.30;;
67378;SDS011;54262;44.642;-0.974;2023-04-25T05:52:02;5.85;;;2.42;;
67378;SDS011;54262;44.642;-0.974;2023-04-25T05:54:28;2.92;;;2.80;;
67378;SDS011;54262;44.642;-0.974;2023-04-25T05:56:55;3.00;;;2.90;;
67378;SDS011;54262;44.642;-0.974;2023-04-25T05:59:22;2.40;;;2.33;;
67378;SDS011;54262;44.642;-0.974;2023-04-25T06:01:51;3.08;;;2.95;;
67378;SDS011;54262;44.642;-0.974;2023-04-25T06:04:17;2.90;;;2.72;;
67378;SDS011;54262;44.642;-0.974;2023-04-25T06:06:43;2.80;;;2.70;;
67378;SDS011;54262;44.642;-0.974;2023-04-25T06:09:09;2.00;;;1.90;;
67378;SDS011;54262;44.642;-0.974;2023-04-25T06:11:35;2.50;;;2.40;;
67378;SDS011;54262;44.642;-0.974;2023-04-25T06:14:01;2.85;;;2.75;;
67378;SDS011;54262;44.642;-0.974;2023-04-25T06:16:27;2.92;;;2.83;;
67378;SDS011;54262;44.642;-0.974;2023-04-25T06:18:53;2.60;;;2.50;;
67378;SDS011;54262;44.642;-0.974;2023-04-25T06:21:19;3.50;;;3.40;;
67378;SDS011;54262;44.642;-0.974;2023-04-25T06:23:45;2.70;;;2.50;;
67378;SDS011;54262;44.642;-0.974;2023-04-25T06:26:11;2.83;;;2.72;;
67378;SDS011;54262;44.642;-0.974;2023-04-25T06:28:37;3.17;;;2.92;;
67378;SDS011;54262;44.642;-0.974;2023-04-25T06:31:06;2.10;;;2.00;;
67378;SDS011;54262;44.642;-0.974;2023-04-25T06:33:34;2.67;;;2.58;;
67378;SDS011;54262;44.642;-0.974;2023-04-25T06:36:00;2.00;;;1.90;;
67378;SDS011;54262;44.642;-0.974;2023-04-25T06:38:26;2.15;;;2.05;;
67378;SDS011;54262;44.642;-0.974;2023-04-25T06:40:52;2.33;;;2.22;;
67378;SDS011;54262;44.642;-0.974;2023-04-25T06:43:18;2.75;;;2.03;;
67378;SDS011;54262;44.642;-0.974;2023-04-25T06:45:44;1.75;;;1.75;;
67378;SDS011;54262;44.642;-0.974;2023-04-25T06:48:10;1.90;;;1.60;;
67378;SDS011;54262;44.642;-0.974;2023-04-25T06:50:36;1.83;;;1.80;;
67378;SDS011;54262;44.642;-0.974;2023-04-25T06:53:02;2.00;;;1.90;;
67378;SDS011;54262;44.642;-0.974;2023-04-25T06:55:28;2.38;;;2.20;;
67378;SDS011;54262;44.642;-0.974;2023-04-25T06:57:55;1.98;;;1.88;;
67378;SDS011;54262;44.642;-0.974;2023-04-25T07:00:21;4.10;;;2.00;;
67378;SDS011;54262;44.642;-0.974;2023-04-25T07:02:47;2.25;;;1.58;;
67378;SDS011;54262;44.642;-0.974;2023-04-25T07:05:13;4.65;;;1.80;;
67378;SDS011;54262;44.642;-0.974;2023-04-25T07:07:39;1.70;;;1.60;;
67378;SDS011;54262;44.642;-0.974;2023-04-25T07:10:05;1.95;;;1.85;;
67378;SDS011;54262;44.642;-0.974;2023-04-25T07:12:32;1.73;;;1.63;;
67378;SDS011;54262;44.642;-0.974;2023-04-25T07:14:58;2.42;;;2.33;;
67378;SDS011;54262;44.642;-0.974;2023-04-25T07:17:24;2.50;;;2.40;;
67378;SDS011;54262;44.642;-0.974;2023-04-25T07:19:50;2.42;;;2.33;;
67378;SDS011;54262;44.642;-0.974;2023-04-25T07:22:16;1.75;;;1.73;;
67378;SDS011;54262;44.642;-0.974;2023-04-25T07:24:42;2.13;;;2.03;;
67378;SDS011;54262;44.642;-0.974;2023-04-25T07:27:12;2.40;;;2.30;;
67378;SDS011;54262;44.642;-0.974;2023-04-25T07:29:38;2.33;;;2.22;;
67378;SDS011;54262;44.642;-0.974;2023-04-25T07:32:06;2.38;;;2.25;;
67378;SDS011;54262;44.642;-0.974;2023-04-25T07:34:35;2.30;;;2.20;;
67378;SDS011;54262;44.642;-0.974;2023-04-25T07:37:02;2.70;;;2.60;;
67378;SDS011;54262;44.642;-0.974;2023-04-25T07:39:28;2.63;;;2.53;;
67378;SDS011;54262;44.642;-0.974;2023-04-25T07:41:54;2.60;;;2.28;;
67378;SDS011;54262;44.642;-0.974;2023-04-25T07:44:21;2.63;;;2.42;;
67378;SDS011;54262;44.642;-0.974;2023-04-25T07:46:47;2.28;;;1.90;;
67378;SDS011;54262;44.642;-0.974;2023-04-25T07:49:13;2.28;;;2.17;;
67378;SDS011;54262;44.642;-0.974;2023-04-25T07:51:39;3.45;;;3.15;;
67378;SDS011;54262;44.642;-0.974;2023-04-25T07:54:06;2.83;;;2.30;;
67378;SDS011;54262;44.642;-0.974;2023-04-25T07:56:32;2.58;;;2.38;;
67378;SDS011;54262;44.642;-0.974;2023-04-25T07:58:58;2.92;;;2.75;;
67378;SDS011;54262;44.642;-0.974;2023-04-25T08:01:25;3.20;;;3.00;;
67378;SDS011;54262;44.642;-0.974;2023-04-25T08:03:52;3.22;;;3.03;;
67378;SDS011;54262;44.642;-0.974;2023-04-25T08:06:18;3.05;;;2.80;;
67378;SDS011;54262;44.642;-0.974;2023-04-25T08:08:44;4.75;;;2.60;;
67378;SDS011;54262;44.642;-0.974;2023-04-25T08:11:11;3.72;;;3.25;;
67378;SDS011;54262;44.642;-0.974;2023-04-25T08:13:37;2.60;;;2.50;;
67378;SDS011;54262;44.642;-0.974;2023-04-25T08:16:03;3.28;;;3.17;;
67378;SDS011;54262;44.642;-0.974;2023-04-25T08:18:29;3.72;;;3.53;;
67378;SDS011;54262;44.642;-0.974;2023-04-25T08:20:55;3.38;;;3.28;;
67378;SDS011;54262;44.642;-0.974;2023-04-25T08:23:24;3.83;;;3.63;;
67378;SDS011;54262;44.642;-0.974;2023-04-25T08:25:50;3.70;;;3.50;;
67378;SDS011;54262;44.642;-0.974;2023-04-25T08:28:17;3.92;;;3.70;;
67378;SDS011;54262;44.642;-0.974;2023-04-25T08:30:43;3.40;;;3.20;;
67378;SDS011;54262;44.642;-0.974;2023-04-25T08:33:11;3.50;;;3.30;;
67378;SDS011;54262;44.642;-0.974;2023-04-25T08:35:39;3.03;;;2.90;;
67378;SDS011;54262;44.642;-0.974;2023-04-25T08:38:05;3.42;;;3.10;;
67378;SDS011;54262;44.642;-0.974;2023-04-25T08:40:31;4.03;;;3.72;;
67378;SDS011;54262;44.642;-0.974;2023-04-25T08:43:00;3.63;;;3.33;;
67378;SDS011;54262;44.642;-0.974;2023-04-25T08:45:28;3.35;;;3.15;;
67378;SDS011;54262;44.642;-0.974;2023-04-25T08:47:57;3.30;;;3.13;;
67378;SDS011;54262;44.642;-0.974;2023-04-25T08:50:23;3.58;;;3.38;;
67378;SDS011;54262;44.642;-0.974;2023-04-25T08:52:51;3.33;;;3.13;;
67378;SDS011;54262;44.642;-0.974;2023-04-25T08:55:18;4.22;;;4.03;;
67378;SDS011;54262;44.642;-0.974;2023-04-25T08:57:46;4.00;;;3.78;;
67378;SDS011;54262;44.642;-0.974;2023-04-25T09:00:12;3.63;;;3.38;;
67378;SDS011;54262;44.642;-0.974;2023-04-25T09:02:39;3.63;;;3.42;;
67378;SDS011;54262;44.642;-0.974;2023-04-25T09:05:05;3.88;;;3.58;;
67378;SDS011;54262;44.642;-0.974;2023-04-25T09:07:32;3.85;;;3.65;;
67378;SDS011;54262;44.642;-0.974;2023-04-25T09:09:58;4.60;;;3.80;;
67378;SDS011;54262;44.642;-0.974;2023-04-25T09:12:28;5.53;;;4.70;;
67378;SDS011;54262;44.642;-0.974;2023-04-25T09:15:04;4.25;;;4.03;;
67378;SDS011;54262;44.642;-0.974;2023-04-25T09:17:31;3.28;;;3.08;;
67378;SDS011;54262;44.642;-0.974;2023-04-25T09:20:07;4.25;;;3.58;;
67378;SDS011;54262;44.642;-0.974;2023-04-25T09:22:33;6.85;;;4.57;;
67378;SDS011;54262;44.642;-0.974;2023-04-25T09:25:10;4.32;;;4.13;;
67378;SDS011;54262;44.642;-0.974;2023-04-25T09:27:36;4.13;;;3.75;;
67378;SDS011;54262;44.642;-0.974;2023-04-25T09:30:15;4.10;;;3.90;;
67378;SDS011;54262;44.642;-0.974;2023-04-25T09:32:42;4.28;;;4.03;;
67378;SDS011;54262;44.642;-0.974;2023-04-25T09:35:11;4.22;;;3.80;;
67378;SDS011;54262;44.642;-0.974;2023-04-25T09:37:51;3.85;;;2.70;;
67378;SDS011;54262;44.642;-0.974;2023-04-25T09:40:17;3.50;;;3.25;;
67378;SDS011;54262;44.642;-0.974;2023-04-25T09:42:43;3.20;;;3.05;;
67378;SDS011;54262;44.642;-0.974;2023-04-25T09:45:11;2.90;;;2.70;;
67378;SDS011;54262;44.642;-0.974;2023-04-25T09:47:40;4.47;;;2.70;;
67378;SDS011;54262;44.642;-0.974;2023-04-25T09:50:15;2.10;;;2.00;;
67378;SDS011;54262;44.642;-0.974;2023-04-25T09:52:41;2.97;;;2.78;;
67378;SDS011;54262;44.642;-0.974;2023-04-25T09:55:07;5.22;;;3.22;;
67378;SDS011;54262;44.642;-0.974;2023-04-25T09:57:33;2.45;;;2.35;;
67378;SDS011;54262;44.642;-0.974;2023-04-25T10:00:04;3.08;;;2.88;;
67378;SDS011;54262;44.642;-0.974;2023-04-25T10:02:34;3.80;;;2.60;;
67378;SDS011;54262;44.642;-0.974;2023-04-25T10:05:00;4.60;;;2.70;;
67378;SDS011;54262;44.642;-0.974;2023-04-25T10:07:29;2.72;;;2.53;;
67378;SDS011;54262;44.642;-0.974;2023-04-25T10:09:59;2.90;;;2.22;;
67378;SDS011;54262;44.642;-0.974;2023-04-25T10:12:28;2.20;;;2.10;;
67378;SDS011;54262;44.642;-0.974;2023-04-25T10:14:56;2.22;;;2.13;;
67378;SDS011;54262;44.642;-0.974;2023-04-25T10:17:23;1.92;;;1.83;;
67378;SDS011;54262;44.642;-0.974;2023-04-25T10:19:49;2.92;;;2.53;;
67378;SDS011;54262;44.642;-0.974;2023-04-25T10:22:22;3.13;;;3.00;;
67378;SDS011;54262;44.642;-0.974;2023-04-25T10:24:49;2.92;;;2.70;;
67378;SDS011;54262;44.642;-0.974;2023-04-25T10:27:15;2.00;;;1.90;;
67378;SDS011;54262;44.642;-0.974;2023-04-25T10:29:43;3.25;;;2.22;;
67378;SDS011;54262;44.642;-0.974;2023-04-25T10:32:09;2.10;;;2.00;;
67378;SDS011;54262;44.642;-0.974;2023-04-25T10:34:39;6.35;;;2.03;;
67378;SDS011;54262;44.642;-0.974;2023-04-25T10:37:13;1.90;;;1.80;;
67378;SDS011;54262;44.642;-0.974;2023-04-25T10:39:41;2.30;;;2.20;;
67378;SDS011;54262;44.642;-0.974;2023-04-25T10:42:08;2.15;;;2.05;;
67378;SDS011;54262;44.642;-0.974;2023-04-25T10:44:35;2.10;;;2.00;;
67378;SDS011;54262;44.642;-0.974;2023-04-25T10:47:03;2.08;;;1.98;;
67378;SDS011;54262;44.642;-0.974;2023-04-25T10:49:31;2.15;;;2.05;;
67378;SDS011;54262;44.642;-0.974;2023-04-25T10:54:45;3.65;;;2.03;;
67378;SDS011;54262;44.642;-0.974;2023-04-25T10:59:57;2.28;;;2.17;;
67378;SDS011;54262;44.642;-0.974;2023-04-25T11:02:25;1.95;;;1.80;;
67378;SDS011;54262;44.642;-0.974;2023-04-25T11:04:55;2.33;;;2.22;;
67378;SDS011;54262;44.642;-0.974;2023-04-25T11:09:56;4.57;;;2.25;;
67378;SDS011;54262;44.642;-0.974;2023-04-25T11:12:24;1.90;;;1.80;;
67378;SDS011;54262;44.642;-0.974;2023-04-25T11:14:50;2.28;;;2.17;;
67378;SDS011;54262;44.642;-0.974;2023-04-25T11:17:19;2.30;;;2.20;;
67378;SDS011;54262;44.642;-0.974;2023-04-25T11:19:47;2.00;;;1.90;;
67378;SDS011;54262;44.642;-0.974;2023-04-25T11:22:14;2.53;;;2.35;;
67378;SDS011;54262;44.642;-0.974;2023-04-25T11:24:40;1.70;;;1.60;;
67378;SDS011;54262;44.642;-0.974;2023-04-25T11:27:07;1.73;;;1.70;;
67378;SDS011;54262;44.642;-0.974;2023-04-25T11:29:34;2.08;;;1.98;;
67378;SDS011;54262;44.642;-0.974;2023-04-25T11:32:03;2.05;;;1.95;;
67378;SDS011;54262;44.642;-0.974;2023-04-25T11:34:30;1.90;;;1.80;;
67378;SDS011;54262;44.642;-0.974;2023-04-25T11:36:56;2.25;;;2.15;;
67378;SDS011;54262;44.642;-0.974;2023-04-25T11:39:28;2.00;;;1.90;;
67378;SDS011;54262;44.642;-0.974;2023-04-25T11:41:56;4.13;;;1.85;;
67378;SDS011;54262;44.642;-0.974;2023-04-25T11:44:22;1.92;;;1.83;;
67378;SDS011;54262;44.642;-0.974;2023-04-25T11:46:49;1.15;;;1.15;;
67378;SDS011;54262;44.642;-0.974;2023-04-25T11:49:15;1.88;;;1.77;;
67378;SDS011;54262;44.642;-0.974;2023-04-25T11:51:43;1.50;;;1.50;;
67378;SDS011;54262;44.642;-0.974;2023-04-25T11:54:10;1.45;;;1.35;;
67378;SDS011;54262;44.642;-0.974;2023-04-25T11:56:36;1.52;;;1.50;;
67378;SDS011;54262;44.642;-0.974;2023-04-25T11:59:03;2.00;;;1.60;;
67378;SDS011;54262;44.642;-0.974;2023-04-25T12:01:30;1.48;;;1.45;;
67378;SDS011;54262;44.642;-0.974;2023-04-25T12:03:57;2.25;;;2.15;;
67378;SDS011;54262;44.642;-0.974;2023-04-25T12:06:27;1.75;;;1.40;;
67378;SDS011;54262;44.642;-0.974;2023-04-25T12:11:52;1.50;;;1.40;;
67378;SDS011;54262;44.642;-0.974;2023-04-25T12:14:22;1.35;;;1.25;;
67378;SDS011;54262;44.642;-0.974;2023-04-25T12:16:49;1.65;;;1.55;;
67378;SDS011;54262;44.642;-0.974;2023-04-25T12:19:16;1.40;;;1.40;;
67378;SDS011;54262;44.642;-0.974;2023-04-25T12:21:43;1.40;;;1.40;;
67378;SDS011;54262;44.642;-0.974;2023-04-25T12:24:21;4.15;;;1.67;;
67378;SDS011;54262;44.642;-0.974;2023-04-25T12:29:19;1.50;;;1.40;;
67378;SDS011;54262;44.642;-0.974;2023-04-25T12:31:45;1.60;;;1.50;;
67378;SDS011;54262;44.642;-0.974;2023-04-25T12:34:11;1.70;;;1.60;;
67378;SDS011;54262;44.642;-0.974;2023-04-25T12:36:40;1.40;;;1.30;;
67378;SDS011;54262;44.642;-0.974;2023-04-25T12:39:06;4.47;;;1.10;;
67378;SDS011;54262;44.642;-0.974;2023-04-25T12:41:35;1.23;;;1.20;;
67378;SDS011;54262;44.642;-0.974;2023-04-25T12:44:03;1.92;;;1.83;;
67378;SDS011;54262;44.642;-0.974;2023-04-25T12:46:29;1.60;;;1.50;;
67378;SDS011;54262;44.642;-0.974;2023-04-25T12:48:55;1.52;;;1.42;;
67378;SDS011;54262;44.642;-0.974;2023-04-25T12:51:22;1.52;;;1.52;;
67378;SDS011;54262;44.642;-0.974;2023-04-25T12:53:50;0.80;;;0.80;;
67378;SDS011;54262;44.642;-0.974;2023-04-25T12:56:16;1.38;;;1.27;;
67378;SDS011;54262;44.642;-0.974;2023-04-25T12:58:42;1.35;;;1.25;;
67378;SDS011;54262;44.642;-0.974;2023-04-25T13:01:09;4.57;;;1.35;;
67378;SDS011;54262;44.642;-0.974;2023-04-25T13:03:37;1.05;;;1.00;;
67378;SDS011;54262;44.642;-0.974;2023-04-25T13:06:03;1.10;;;1.10;;
67378;SDS011;54262;44.642;-0.974;2023-04-25T13:08:29;0.90;;;0.90;;
67378;SDS011;54262;44.642;-0.974;2023-04-25T13:10:55;0.90;;;0.90;;
67378;SDS011;54262;44.642;-0.974;2023-04-25T13:13:24;1.25;;;1.25;;
67378;SDS011;54262;44.642;-0.974;2023-04-25T13:15:52;1.40;;;1.30;;
67378;SDS011;54262;44.642;-0.974;2023-04-25T13:18:18;1.75;;;1.65;;
67378;SDS011;54262;44.642;-0.974;2023-04-25T13:20:44;1.88;;;1.77;;
67378;SDS011;54262;44.642;-0.974;2023-04-25T13:23:11;1.33;;;1.30;;
67378;SDS011;54262;44.642;-0.974;2023-04-25T13:25:37;1.67;;;1.60;;
67378;SDS011;54262;44.642;-0.974;2023-04-25T13:28:03;2.00;;;1.90;;
67378;SDS011;54262;44.642;-0.974;2023-04-25T13:30:29;1.60;;;1.50;;
67378;SDS011;54262;44.642;-0.974;2023-04-25T13:32:55;2.20;;;2.10;;
67378;SDS011;54262;44.642;-0.974;2023-04-25T13:35:22;1.30;;;1.30;;
67378;SDS011;54262;44.642;-0.974;2023-04-25T13:37:48;1.58;;;1.48;;
67378;SDS011;54262;44.642;-0.974;2023-04-25T13:40:14;2.10;;;2.00;;
67378;SDS011;54262;44.642;-0.974;2023-04-25T13:42:43;1.65;;;1.60;;
67378;SDS011;54262;44.642;-0.974;2023-04-25T13:45:11;2.75;;;2.28;;
67378;SDS011;54262;44.642;-0.974;2023-04-25T13:47:37;1.92;;;1.90;;
67378;SDS011;54262;44.642;-0.974;2023-04-25T13:50:04;1.42;;;1.42;;
67378;SDS011;54262;44.642;-0.974;2023-04-25T13:52:30;1.95;;;1.85;;
67378;SDS011;54262;44.642;-0.974;2023-04-25T13:54:57;2.17;;;2.08;;
67378;SDS011;54262;44.642;-0.974;2023-04-25T13:57:23;1.60;;;1.60;;
67378;SDS011;54262;44.642;-0.974;2023-04-25T13:59:50;1.40;;;1.40;;
67378;SDS011;54262;44.642;-0.974;2023-04-25T14:02:16;1.38;;;1.10;;
67378;SDS011;54262;44.642;-0.974;2023-04-25T14:04:43;1.38;;;1.27;;
67378;SDS011;54262;44.642;-0.974;2023-04-25T14:07:09;1.50;;;1.40;;
67378;SDS011;54262;44.642;-0.974;2023-04-25T14:09:36;1.30;;;1.20;;
67378;SDS011;54262;44.642;-0.974;2023-04-25T14:12:02;1.55;;;1.42;;
67378;SDS011;54262;44.642;-0.974;2023-04-25T14:14:28;1.35;;;1.25;;
67378;SDS011;54262;44.642;-0.974;2023-04-25T14:16:57;1.52;;;1.05;;
67378;SDS011;54262;44.642;-0.974;2023-04-25T14:19:23;1.40;;;1.38;;
67378;SDS011;54262;44.642;-0.974;2023-04-25T14:21:49;1.50;;;1.50;;
67378;SDS011;54262;44.642;-0.974;2023-04-25T14:24:18;1.50;;;1.40;;
67378;SDS011;54262;44.642;-0.974;2023-04-25T14:26:45;1.52;;;1.42;;
67378;SDS011;54262;44.642;-0.974;2023-04-25T14:29:11;1.50;;;1.50;;
67378;SDS011;54262;44.642;-0.974;2023-04-25T14:31:37;1.73;;;1.63;;
67378;SDS011;54262;44.642;-0.974;2023-04-25T14:34:04;1.10;;;1.10;;
67378;SDS011;54262;44.642;-0.974;2023-04-25T14:36:30;1.40;;;1.30;;
67378;SDS011;54262;44.642;-0.974;2023-04-25T14:38:57;1.13;;;1.13;;
67378;SDS011;54262;44.642;-0.974;2023-04-25T14:41:23;1.10;;;1.10;;
67378;SDS011;54262;44.642;-0.974;2023-04-25T14:43:52;0.90;;;0.90;;
67378;SDS011;54262;44.642;-0.974;2023-04-25T14:46:20;0.93;;;0.93;;